ローマ/フィウミチーノ の空港の天気 - METARとTAF

ローマ・レオナルド・ダ・ビンチ国際空港 ( LIRF / FCO ) - イタリア ローマ
飛行場実況気象(Metar)
観測時間05/30 21:20 CEST (05/30 19:20 UTC)
風向・風速北北東 3m/s
視程10km以上
天気現象
なし
気温16℃
湿度72%
気圧1014hPa
METARLIRF 301920Z 02005KT CAVOK 16/11 Q1014 NOSIG
過去の天気等 Google飛行場航空写真 Wunderground天気予報

過去48時間のMETAR

飛行場予報(TAF)
発表時間: 5/30 19:00 CEST (5/30 17:00 UTC)
予報対象時間: 30日20時 CEST ~ 1日2時 CEST
風向・風速不定 3m/s
視程10km以上
少しの雲 雲底高度 910m
31日10時 CEST ~ 31日12時 CEST に徐々に
風向・風速西 5m/s
31日22時 CEST ~ 31日24時 CEST に徐々に
風向・風速北 5m/s
TAF LIRF 301700Z 3018/3124 VRB06KT 9999 FEW030
BECMG 3108/3110 27010KT
BECMG 3120/3122 35010KT